Time;durP1;ratioP1;P1;durP2;ratioP2;P2;SDS_P1;SDS_P2;PMS_P1;PMS_P2;Temp;Humidity;BMP_temperature;BMP_pressure;BME280_temperature;BME280_humidity;BME280_pressure;Samples;Min_cycle;Max_cycle;Signal;HPM_P1;HPM_P2
2021/10/17 00:00:19;;;;;;;22.65;12.63;;;;;;;11.61;82.41;101027.22;1693728;82;21084;-61
2021/10/17 00:02:46;;;;;;;25.37;12.65;;;;;;;11.60;82.40;101018.72;1702042;82;21096;-62
2021/10/17 00:05:17;;;;;;;25.05;13.10;;;;;;;11.58;82.32;101020.14;1699810;83;21089;-63
2021/10/17 00:07:44;;;;;;;19.57;11.68;;;;;;;11.60;82.12;101014.69;1712932;82;21055;-63
2021/10/17 00:10:15;;;;;;;21.80;13.08;;;;;;;11.60;81.66;101018.72;1704810;83;21438;-63
2021/10/17 00:12:42;;;;;;;21.70;12.53;;;;;;;11.58;81.71;101015.22;1706654;82;21048;-62
2021/10/17 00:15:11;;;;;;;22.95;12.37;;;;;;;11.56;81.69;101014.39;1716471;82;21590;-63
2021/10/17 00:17:40;;;;;;;27.82;13.40;;;;;;;11.57;81.66;101021.07;1692624;82;21064;-63
2021/10/17 00:20:09;;;;;;;23.95;12.65;;;;;;;11.59;81.54;101023.69;1697052;84;21681;-63
2021/10/17 00:22:37;;;;;;;19.73;11.88;;;;;;;11.60;81.19;101009.33;1707090;82;21522;-63
2021/10/17 00:25:05;;;;;;;23.45;12.00;;;;;;;11.58;81.13;101011.19;1699508;82;21143;-56
2021/10/17 00:27:33;;;;;;;21.05;11.33;;;;;;;11.57;80.90;101013.47;1701317;84;21466;-57
2021/10/17 00:30:00;;;;;;;25.40;12.78;;;;;;;11.56;80.88;101008.58;1700717;82;21033;-57
2021/10/17 00:32:27;;;;;;;25.60;13.10;;;;;;;11.57;80.97;101009.44;1691591;83;21092;-56
2021/10/17 00:34:54;;;;;;;29.02;13.43;;;;;;;11.59;80.71;101008.47;1707453;82;21577;-56
2021/10/17 00:37:21;;;;;;;19.65;11.40;;;;;;;11.63;80.34;101009.24;1705033;82;21061;-56
2021/10/17 00:39:48;;;;;;;19.52;11.95;;;;;;;11.61;80.15;101019.16;1706356;82;21620;-56
2021/10/17 00:42:15;;;;;;;22.73;12.15;;;;;;;11.59;80.02;101012.49;1699472;82;21004;-62
2021/10/17 00:44:43;;;;;;;29.15;12.75;;;;;;;11.57;79.84;101013.47;1715417;82;21155;-62
2021/10/17 00:47:10;;;;;;;29.07;12.75;;;;;;;11.55;79.82;101016.22;1732281;82;21553;-63
2021/10/17 00:49:37;;;;;;;41.23;14.23;;;;;;;11.56;79.57;101013.95;1698002;83;21036;-56
2021/10/17 00:52:05;;;;;;;38.80;13.95;;;;;;;11.60;79.17;101014.69;1705130;82;21929;-57
2021/10/17 00:54:33;;;;;;;34.85;12.25;;;;;;;11.59;79.28;101016.52;1701174;82;21796;-57
2021/10/17 00:57:00;;;;;;;44.48;12.75;;;;;;;11.59;78.94;101006.23;1680821;84;21483;-57
2021/10/17 00:59:28;;;;;;;38.65;12.98;;;;;;;11.61;79.07;101013.80;1709103;82;21057;-57
2021/10/17 01:01:55;;;;;;;37.83;12.70;;;;;;;11.58;78.83;101016.56;1710265;82;21699;-56
2021/10/17 01:04:22;;;;;;;29.70;13.08;;;;;;;11.55;78.95;101018.02;1711893;82;22143;-58
2021/10/17 01:06:49;;;;;;;31.77;13.10;;;;;;;11.54;79.33;101017.61;1711238;82;21561;-57
2021/10/17 01:09:16;;;;;;;33.05;12.73;;;;;;;11.55;79.42;101011.30;1710638;82;21100;-57
2021/10/17 01:11:46;;;;;;;25.90;12.35;;;;;;;11.58;79.46;101008.50;1728732;82;21076;-57
2021/10/17 01:14:18;;;;;;;31.82;13.05;;;;;;;11.58;79.60;101008.50;1721904;81;21089;-57
2021/10/17 01:16:45;;;;;;;26.33;13.95;;;;;;;11.59;79.77;101008.91;1710873;82;21134;-57
2021/10/17 01:19:13;;;;;;;29.20;13.28;;;;;;;11.57;79.77;101022.86;1708783;82;21681;-58
2021/10/17 01:21:40;;;;;;;43.73;13.08;;;;;;;11.54;79.93;101020.29;1717979;82;21431;-56
2021/10/17 01:24:08;;;;;;;32.63;13.45;;;;;;;11.51;80.12;101015.92;1710016;83;21086;-63
2021/10/17 01:26:35;;;;;;;25.35;11.48;;;;;;;11.52;80.32;101019.47;1703396;83;21100;-63
2021/10/17 01:29:03;;;;;;;23.65;12.45;;;;;;;11.53;80.15;101027.48;1703312;83;21632;-57
2021/10/17 01:31:36;;;;;;;39.80;13.80;;;;;;;11.50;80.23;101021.33;1707575;83;21194;-57
2021/10/17 01:34:05;;;;;;;29.65;13.05;;;;;;;11.45;80.51;101019.69;1725301;82;21101;-57
2021/10/17 01:36:33;;;;;;;37.78;13.03;;;;;;;11.45;80.56;101010.29;1721369;81;21060;-57
2021/10/17 01:39:00;;;;;;;38.30;12.07;;;;;;;11.42;80.68;101029.20;1714135;82;21414;-62
2021/10/17 01:41:28;;;;;;;42.25;13.10;;;;;;;11.39;80.83;101019.91;1707886;83;21075;-62
2021/10/17 01:44:08;;;;;;;39.92;13.00;;;;;;;11.35;81.05;101020.91;1677418;84;22148;-61
2021/10/17 01:46:35;;;;;;;30.97;14.13;;;;;;;11.30;81.28;101018.86;1688816;83;21759;-63
2021/10/17 01:49:07;;;;;;;44.30;14.13;;;;;;;11.28;81.45;101019.38;1717232;82;21134;-63
2021/10/17 01:51:36;;;;;;;52.43;14.38;;;;;;;11.27;81.44;101017.17;1691291;83;21048;-56
2021/10/17 01:54:04;;;;;;;51.15;14.28;;;;;;;11.25;81.64;101020.34;1715755;82;21182;-57
2021/10/17 01:56:33;;;;;;;47.55;13.88;;;;;;;11.29;81.36;101021.13;1719408;82;21109;-55
2021/10/17 01:59:00;;;;;;;52.15;13.18;;;;;;;11.29;81.21;101022.47;1717384;82;21107;-56
2021/10/17 02:01:28;;;;;;;63.15;14.45;;;;;;;11.28;80.94;101019.38;1683999;83;21576;-56
2021/10/17 02:03:56;;;;;;;54.38;14.75;;;;;;;11.28;81.08;101018.93;1651179;85;21152;-55
2021/10/17 02:06:24;;;;;;;44.65;14.65;;;;;;;11.28;80.94;101015.35;1651231;84;21745;-61
2021/10/17 02:08:53;;;;;;;33.35;12.90;;;;;;;11.30;80.46;101025.57;1676074;83;22220;-61
2021/10/17 02:11:20;;;;;;;54.93;14.85;;;;;;;11.29;80.23;101027.84;1656281;83;21116;-61
2021/10/17 02:13:47;;;;;;;48.17;13.90;;;;;;;11.26;79.90;101018.08;1665530;84;21034;-62
2021/10/17 02:16:14;;;;;;;36.38;13.72;;;;;;;11.27;79.84;101026.57;1670302;84;21124;-62
2021/10/17 02:18:41;;;;;;;46.95;14.07;;;;;;;11.25;79.34;101035.11;1671430;84;21136;-62
2021/10/17 02:21:09;;;;;;;38.73;14.15;;;;;;;11.24;79.64;101023.10;1669783;84;21621;-62
2021/10/17 02:23:36;;;;;;;29.80;13.28;;;;;;;11.23;79.46;101026.72;1667810;84;21087;-62
2021/10/17 02:26:03;;;;;;;50.60;14.05;;;;;;;11.25;79.58;101028.40;1664548;84;21080;-62
2021/10/17 02:28:32;;;;;;;30.15;13.53;;;;;;;11.26;79.66;101028.81;1663190;84;21073;-62
2021/10/17 02:30:59;;;;;;;50.43;13.95;;;;;;;11.22;79.59;101024.96;1667812;84;21127;-63
2021/10/17 02:33:28;;;;;;;43.58;14.10;;;;;;;11.24;79.97;101032.50;1669529;84;21513;-62
2021/10/17 02:35:57;;;;;;;38.95;15.10;;;;;;;11.24;80.54;101036.52;1675524;84;21084;-62
2021/10/17 02:38:24;;;;;;;44.05;14.00;;;;;;;11.25;80.82;101032.91;1678942;83;21095;-63
2021/10/17 02:40:51;;;;;;;24.80;13.20;;;;;;;11.27;81.05;101031.94;1644836;85;21128;-62
2021/10/17 02:43:18;;;;;;;30.55;13.62;;;;;;;11.26;81.50;101034.66;1640646;86;21109;-63
2021/10/17 02:45:45;;;;;;;24.65;13.25;;;;;;;11.22;81.79;101041.92;1661389;84;21048;-55
2021/10/17 02:48:12;;;;;;;30.97;13.30;;;;;;;11.21;82.05;101041.99;1651926;85;21103;-56
2021/10/17 02:50:39;;;;;;;35.28;14.15;;;;;;;11.23;82.07;101045.50;1680237;84;21056;-56
2021/10/17 02:53:07;;;;;;;35.08;14.60;;;;;;;11.25;82.17;101044.98;1674319;84;37376;-56
2021/10/17 02:55:35;;;;;;;24.95;13.32;;;;;;;11.27;82.29;101041.78;1670244;84;21139;-56
2021/10/17 02:58:04;;;;;;;23.50;13.25;;;;;;;11.31;82.15;101047.45;1675841;84;21104;-55
2021/10/17 03:00:31;;;;;;;24.40;13.38;;;;;;;11.29;82.33;101045.29;1678486;83;21155;-56
2021/10/17 03:02:59;;;;;;;26.05;13.22;;;;;;;11.26;82.40;101042.71;1689358;83;21128;-55
2021/10/17 03:05:27;;;;;;;29.65;13.08;;;;;;;11.25;82.61;101040.95;1685108;83;21048;-57
2021/10/17 03:07:54;;;;;;;31.37;15.18;;;;;;;11.25;82.75;101044.98;1683950;83;21130;-55
2021/10/17 03:10:24;;;;;;;29.42;14.33;;;;;;;11.24;82.89;101044.58;1695020;83;21260;-55
2021/10/17 03:12:52;;;;;;;34.38;14.58;;;;;;;11.25;83.09;101046.33;1676100;83;21091;-56
2021/10/17 03:15:20;;;;;;;31.05;15.10;;;;;;;11.26;83.08;101038.20;1699799;83;21125;-56
2021/10/17 03:17:49;;;;;;;62.55;15.90;;;;;;;11.26;83.32;101038.20;1690114;83;21111;-56
2021/10/17 03:20:16;;;;;;;38.73;14.15;;;;;;;11.26;83.58;101044.91;1693629;83;21777;-56
2021/10/17 03:22:45;;;;;;;42.93;14.75;;;;;;;11.27;83.56;101049.84;1685461;83;22297;-56
2021/10/17 03:25:12;;;;;;;52.23;15.72;;;;;;;11.23;83.54;101054.41;1685052;83;21092;-56
2021/10/17 03:27:39;;;;;;;29.30;14.07;;;;;;;11.20;83.78;101044.27;1689957;83;21115;-56
2021/10/17 03:30:07;;;;;;;36.75;14.07;;;;;;;11.16;84.16;101057.79;1645918;85;21078;-56
2021/10/17 03:32:34;;;;;;;35.13;14.43;;;;;;;11.14;84.24;101062.30;1649428;85;21553;-57
2021/10/17 03:35:04;;;;;;;39.60;14.63;;;;;;;11.12;84.42;101047.20;1640327;85;21101;-57
2021/10/17 03:37:32;;;;;;;51.80;15.03;;;;;;;11.12;84.75;101048.06;1639752;85;21534;-57
2021/10/17 03:39:59;;;;;;;45.88;15.10;;;;;;;11.14;84.94;101050.70;1641956;85;21040;-57
2021/10/17 03:42:28;;;;;;;58.85;16.02;;;;;;;11.15;84.87;101045.75;1640238;85;21553;-57
2021/10/17 03:44:56;;;;;;;68.28;15.20;;;;;;;11.16;84.76;101057.79;1642650;85;21153;-57
2021/10/17 03:47:24;;;;;;;31.70;13.70;;;;;;;11.15;84.38;101061.37;1643657;85;21510;-57
2021/10/17 03:49:53;;;;;;;33.83;16.45;;;;;;;11.13;84.56;101055.66;1685187;83;21057;-57
2021/10/17 03:52:22;;;;;;;45.58;14.83;;;;;;;11.11;84.80;101060.20;1683216;83;21127;-57
2021/10/17 03:54:49;;;;;;;33.55;14.68;;;;;;;11.10;84.99;101061.13;1688350;83;21092;-54
2021/10/17 03:57:16;;;;;;;33.33;14.47;;;;;;;11.08;85.35;101058.48;1670579;83;21155;-57
2021/10/17 03:59:45;;;;;;;27.00;13.88;;;;;;;11.07;85.99;101059.89;1692563;83;21632;-57
2021/10/17 04:02:12;;;;;;;27.10;14.07;;;;;;;11.03;86.39;101069.84;1686435;83;21111;-55
2021/10/17 04:04:39;;;;;;;28.17;15.20;;;;;;;11.04;86.68;101072.93;1705133;82;21114;-56
2021/10/17 04:07:06;;;;;;;27.90;15.15;;;;;;;11.05;86.98;101080.05;1704115;82;21156;-55
2021/10/17 04:09:37;;;;;;;27.45;14.90;;;;;;;11.04;87.20;101080.50;1699790;82;21135;-56
2021/10/17 04:12:06;;;;;;;34.25;14.55;;;;;;;11.02;87.68;101076.12;1638598;83;21071;-56
2021/10/17 04:14:35;;;;;;;28.98;16.42;;;;;;;11.00;88.04;101076.64;1697774;82;21120;-55
2021/10/17 04:17:03;;;;;;;41.68;16.75;;;;;;;10.95;88.54;101071.89;1704060;82;21548;-57
2021/10/17 04:19:31;;;;;;;39.23;15.85;;;;;;;10.91;88.75;101080.94;1695727;82;21612;-56
2021/10/17 04:21:58;;;;;;;54.75;16.45;;;;;;;10.89;89.27;101074.30;1688978;82;21332;-57
2021/10/17 04:24:27;;;;;;;51.10;17.77;;;;;;;10.87;89.54;101086.40;1689877;83;21046;-56
2021/10/17 04:26:54;;;;;;;56.70;16.95;;;;;;;10.89;89.61;101081.86;1699109;82;21087;-56
2021/10/17 04:29:23;;;;;;;41.33;17.00;;;;;;;10.91;89.56;101095.69;1682998;83;21132;-56
2021/10/17 04:31:50;;;;;;;49.53;17.42;;;;;;;10.89;89.53;101091.25;1700196;82;21023;-56
2021/10/17 04:34:17;;;;;;;73.83;17.62;;;;;;;10.89;89.66;101093.07;1677220;83;21859;-56
2021/10/17 04:36:44;;;;;;;55.03;17.35;;;;;;;10.88;89.77;101096.69;1699593;82;21089;-56
2021/10/17 04:39:14;;;;;;;61.92;18.00;;;;;;;10.88;89.93;101097.55;1697079;82;21141;-57
2021/10/17 04:41:41;;;;;;;72.90;18.35;;;;;;;10.91;89.95;101103.73;1660339;84;21080;-56
2021/10/17 04:44:08;;;;;;;62.62;17.12;;;;;;;10.95;89.78;101110.80;1684186;83;21518;-56
2021/10/17 04:46:35;;;;;;;48.60;17.73;;;;;;;10.99;89.36;101100.38;1691201;82;22107;-56
2021/10/17 04:49:02;;;;;;;61.05;17.10;;;;;;;10.98;89.39;101106.19;1683466;83;21607;-57
2021/10/17 04:51:31;;;;;;;42.88;17.05;;;;;;;11.00;89.39;101102.13;1692518;82;21145;-57
2021/10/17 04:53:57;;;;;;;42.50;16.32;;;;;;;11.00;89.16;101111.52;1705749;82;21097;-56
2021/10/17 04:56:25;;;;;;;47.58;16.77;;;;;;;11.02;89.03;101117.23;1706075;82;21129;-56
2021/10/17 04:58:53;;;;;;;44.20;18.25;;;;;;;11.04;88.87;101118.55;1700643;82;21129;-56
2021/10/17 05:01:20;;;;;;;43.65;16.80;;;;;;;11.06;88.88;101127.42;1667064;85;21056;-56
2021/10/17 05:03:47;;;;;;;51.70;18.37;;;;;;;11.06;88.85;101119.38;1683689;83;21068;-56
2021/10/17 05:06:14;;;;;;;53.23;19.30;;;;;;;11.08;88.99;101116.17;1685552;83;21085;-56
2021/10/17 05:08:41;;;;;;;43.90;16.87;;;;;;;11.09;89.04;101123.30;1657584;85;21135;-57
2021/10/17 05:11:10;;;;;;;49.58;16.95;;;;;;;11.13;88.56;101129.45;1676058;83;21539;-56
2021/10/17 05:13:37;;;;;;;61.25;20.55;;;;;;;11.14;88.57;101121.34;1678220;83;21660;-56
2021/10/17 05:16:05;;;;;;;67.30;19.20;;;;;;;11.14;88.74;101125.36;1671769;83;21124;-57
2021/10/17 05:18:35;;;;;;;51.13;18.67;;;;;;;11.15;88.88;101123.58;1677577;83;21214;-56
2021/10/17 05:21:03;;;;;;;56.35;18.20;;;;;;;11.16;89.14;101126.23;1652329;85;21070;-59
2021/10/17 05:23:30;;;;;;;81.60;19.52;;;;;;;11.16;89.26;101145.02;1681056;84;21137;-56
2021/10/17 05:25:58;;;;;;;54.85;18.12;;;;;;;11.18;89.12;101132.42;1680377;84;21049;-56
2021/10/17 05:28:24;;;;;;;47.53;19.32;;;;;;;11.18;89.21;101137.79;1678918;84;21159;-57
2021/10/17 05:30:53;;;;;;;36.17;18.37;;;;;;;11.16;89.20;101134.28;1675818;84;21084;-56
2021/10/17 05:33:20;;;;;;;46.30;18.32;;;;;;;11.17;89.04;101145.87;1670760;84;21104;-56
2021/10/17 05:35:48;;;;;;;44.05;19.10;;;;;;;11.16;89.15;101145.45;1668665;84;21986;-56
2021/10/17 05:38:15;;;;;;;43.35;18.50;;;;;;;11.16;89.20;101151.72;1660716;84;21135;-56
2021/10/17 05:40:42;;;;;;;41.30;18.80;;;;;;;11.17;89.19;101154.81;1682377;84;21065;-61
2021/10/17 05:43:09;;;;;;;46.83;20.00;;;;;;;11.18;89.13;101159.26;1681994;83;21577;-62
2021/10/17 05:45:37;;;;;;;42.90;18.77;;;;;;;11.16;89.18;101174.53;1632428;86;21879;-62
2021/10/17 05:48:05;;;;;;;41.50;18.57;;;;;;;11.14;89.21;101168.30;1646418;85;21145;-63
2021/10/17 05:50:34;;;;;;;37.05;18.90;;;;;;;11.14;89.18;101150.86;1646113;85;21858;-62
2021/10/17 05:53:02;;;;;;;49.50;18.60;;;;;;;11.12;89.38;101158.56;1645078;85;20978;-61
2021/10/17 05:55:29;;;;;;;39.55;19.90;;;;;;;11.12;89.29;101171.98;1683741;83;21111;-62
2021/10/17 05:57:56;;;;;;;50.00;20.00;;;;;;;11.12;89.42;101167.48;1688061;83;21380;-63
2021/10/17 06:00:24;;;;;;;49.90;19.42;;;;;;;11.14;89.24;101172.33;1690271;83;21229;-57
2021/10/17 06:02:52;;;;;;;52.35;21.10;;;;;;;11.16;89.19;101179.00;1705235;82;21099;-62
2021/10/17 06:05:20;;;;;;;50.03;20.65;;;;;;;11.16;89.00;101166.48;1705971;82;21100;-63
2021/10/17 06:07:46;;;;;;;59.70;21.52;;;;;;;11.16;89.14;101177.22;1712107;82;21066;-63
2021/10/17 06:10:15;;;;;;;70.87;22.27;;;;;;;11.17;88.92;101178.08;1685099;83;21088;-62
2021/10/17 06:12:42;;;;;;;49.35;20.35;;;;;;;11.17;89.12;101168.69;1696331;82;21962;-63
2021/10/17 06:15:11;;;;;;;63.10;19.45;;;;;;;11.20;89.10;101174.44;1702104;82;21144;-62
2021/10/17 06:17:39;;;;;;;56.00;20.52;;;;;;;11.26;88.92;101169.73;1695658;82;21061;-62
2021/10/17 06:20:07;;;;;;;46.92;20.52;;;;;;;11.31;88.78;101169.59;1698703;82;21117;-62
2021/10/17 06:22:36;;;;;;;34.38;18.95;;;;;;;11.36;88.72;101162.75;1696724;82;21085;-63
2021/10/17 06:25:05;;;;;;;39.67;20.23;;;;;;;11.43;88.54;101171.91;1695381;82;21871;-62
2021/10/17 06:27:33;;;;;;;48.08;21.70;;;;;;;11.49;88.12;101183.37;1695988;82;21096;-63
2021/10/17 06:30:00;;;;;;;42.58;20.12;;;;;;;11.54;88.07;101179.61;1696533;82;21076;-62
2021/10/17 06:32:28;;;;;;;38.48;20.77;;;;;;;11.56;87.94;101176.86;1697016;82;21847;-63
2021/10/17 06:34:55;;;;;;;41.58;19.75;;;;;;;11.59;87.87;101176.75;1696308;82;21168;-63
2021/10/17 06:37:22;;;;;;;52.05;21.52;;;;;;;11.63;87.96;101188.29;1709389;82;21116;-63
2021/10/17 06:39:49;;;;;;;55.65;22.00;;;;;;;11.68;87.91;101176.92;1689379;83;21192;-63
2021/10/17 06:42:17;;;;;;;53.52;22.10;;;;;;;11.73;87.27;101187.94;1685441;83;21183;-63
2021/10/17 06:44:58;;;;;;;57.00;21.73;;;;;;;11.77;87.05;101186.49;1680738;83;21092;-62
2021/10/17 06:47:25;;;;;;;44.23;20.50;;;;;;;11.78;87.16;101200.34;1683036;83;21163;-62
2021/10/17 06:49:52;;;;;;;53.55;20.05;;;;;;;11.81;86.98;101208.29;1692338;83;21134;-63
2021/10/17 06:52:20;;;;;;;51.20;20.40;;;;;;;11.82;86.97;101202.87;1691847;83;21374;-64
2021/10/17 06:54:47;;;;;;;59.30;23.83;;;;;;;11.85;86.90;101194.71;1690598;83;21025;-64
2021/10/17 06:57:14;;;;;;;52.95;22.30;;;;;;;11.92;86.75;101202.11;1691431;83;21698;-63
2021/10/17 06:59:41;;;;;;;45.65;20.80;;;;;;;11.96;86.28;101209.62;1685342;83;21135;-64
2021/10/17 07:02:09;;;;;;;65.37;21.15;;;;;;;11.92;86.08;101189.13;1705106;82;21512;-63
2021/10/17 07:04:37;;;;;;;50.73;23.10;;;;;;;11.91;86.56;101185.58;1714028;82;21617;-63
2021/10/17 07:07:04;;;;;;;55.17;22.22;;;;;;;11.99;86.20;101215.74;1677941;83;21112;-63
2021/10/17 07:09:32;;;;;;;55.70;22.90;;;;;;;12.07;85.67;101201.23;1686484;83;21040;-62
2021/10/17 07:12:07;;;;;;;58.73;21.35;;;;;;;12.08;85.73;101194.92;1689954;83;21048;-63
2021/10/17 07:14:35;;;;;;;62.00;23.00;;;;;;;12.12;85.71;101192.53;1717580;82;22440;-63
2021/10/17 07:17:20;;;;;;;65.47;23.22;;;;;;;12.14;85.12;101201.41;1712189;82;21130;-62
2021/10/17 07:19:47;;;;;;;46.98;21.02;;;;;;;12.12;85.63;101204.62;1708555;82;21029;-63
2021/10/17 07:22:14;;;;;;;43.35;22.70;;;;;;;12.11;85.48;101192.13;1708580;82;21189;-63
2021/10/17 07:24:43;;;;;;;51.73;22.30;;;;;;;12.12;85.57;101203.28;1708866;82;21442;-63
2021/10/17 07:27:10;;;;;;;39.70;20.77;;;;;;;12.16;85.34;101195.52;1703273;82;21584;-63
2021/10/17 07:29:38;;;;;;;54.95;22.00;;;;;;;12.14;85.10;101206.31;1717478;82;21398;-63
2021/10/17 07:32:06;;;;;;;50.40;21.62;;;;;;;12.12;85.19;101200.59;1710927;82;21041;-63
2021/10/17 07:34:33;;;;;;;47.03;21.30;;;;;;;12.12;85.32;101205.97;1709092;82;21574;-62
2021/10/17 07:37:02;;;;;;;46.95;22.22;;;;;;;12.09;84.68;101193.98;1710004;82;21158;-63
2021/10/17 07:39:30;;;;;;;46.33;20.82;;;;;;;12.06;84.93;101191.41;1717762;82;21557;-63
2021/10/17 07:41:59;;;;;;;51.33;21.23;;;;;;;12.04;85.33;101188.27;1699927;83;21100;-62
2021/10/17 07:44:27;;;;;;;63.52;22.65;;;;;;;12.12;85.20;101197.42;1690443;83;21166;-62
2021/10/17 07:46:58;;;;;;;49.80;23.87;;;;;;;12.22;84.95;101184.55;1696115;83;21098;-63
2021/10/17 07:49:28;;;;;;;65.75;22.00;;;;;;;12.29;84.28;101190.14;1695029;83;21083;-63
2021/10/17 07:51:56;;;;;;;39.88;20.52;;;;;;;12.35;83.74;101186.81;1691365;82;21313;-64
2021/10/17 07:54:23;;;;;;;48.15;22.15;;;;;;;12.43;83.63;101194.13;1696890;82;21096;-63
2021/10/17 07:56:50;;;;;;;42.48;20.65;;;;;;;12.50;83.59;101190.77;1701820;82;21550;-64
2021/10/17 07:59:19;;;;;;;33.28;21.17;;;;;;;12.58;82.96;101198.97;1706276;82;21132;-64
2021/10/17 08:01:47;;;;;;;48.83;21.87;;;;;;;12.64;82.66;101187.56;1697301;82;21033;-63
2021/10/17 08:04:28;;;;;;;67.72;21.48;;;;;;;12.71;81.92;101199.84;1678247;83;21530;-63
2021/10/17 08:07:09;;;;;;;39.85;20.25;;;;;;;12.73;82.19;101193.97;1680345;83;21103;-63
2021/10/17 08:09:37;;;;;;;54.45;23.22;;;;;;;12.76;81.91;101203.27;1666515;83;21066;-63
2021/10/17 08:12:05;;;;;;;55.80;21.17;;;;;;;12.77;81.73;101191.57;1687858;83;21681;-63
2021/10/17 08:14:33;;;;;;;58.95;21.73;;;;;;;12.79;81.40;101195.08;1687028;83;21076;-63
2021/10/17 08:17:01;;;;;;;37.73;19.92;;;;;;;12.82;81.58;101185.54;1687404;83;21593;-64
2021/10/17 08:19:47;;;;;;;39.18;19.25;;;;;;;12.91;80.85;101191.05;1681774;83;21159;-63
2021/10/17 08:22:15;;;;;;;39.20;20.90;;;;;;;13.01;80.28;101202.34;1678885;83;21068;-64
2021/10/17 08:24:42;;;;;;;30.92;18.02;;;;;;;13.04;80.36;101184.27;1674641;83;21072;-64
2021/10/17 08:27:10;;;;;;;31.68;18.75;;;;;;;13.17;79.10;101198.13;1684114;83;21080;-63
2021/10/17 08:29:37;;;;;;;33.28;20.75;;;;;;;13.29;78.47;101199.92;1693117;83;21636;-62
2021/10/17 08:32:05;;;;;;;30.72;19.75;;;;;;;13.43;77.89;101188.17;1682773;83;21096;-62
2021/10/17 08:34:34;;;;;;;34.00;19.27;;;;;;;13.56;77.42;101195.75;1676059;83;21438;-63
2021/10/17 08:37:02;;;;;;;32.35;19.12;;;;;;;13.67;77.00;101196.20;1710329;82;21585;-63
2021/10/17 08:39:42;;;;;;;34.20;18.17;;;;;;;13.75;77.02;101190.50;1702939;82;21439;-63
2021/10/17 08:42:10;;;;;;;39.05;18.10;;;;;;;13.86;75.24;101189.57;1694855;83;22346;-62
2021/10/17 08:44:39;;;;;;;32.25;17.80;;;;;;;13.90;74.95;101204.66;1693008;82;21581;-62
2021/10/17 08:47:08;;;;;;;30.92;18.17;;;;;;;13.92;74.07;101196.53;1707298;82;21100;-62
2021/10/17 08:49:37;;;;;;;38.33;17.98;;;;;;;14.02;73.53;101214.55;1652053;84;21099;-57
2021/10/17 08:52:10;;;;;;;45.08;18.48;;;;;;;14.13;73.45;101185.78;1689607;83;21174;-62
2021/10/17 08:54:34;;;;;;;44.20;19.35;;;;;;;14.23;73.85;101200.60;1680919;84;21110;-62
2021/10/17 08:57:03;;;;;;;39.23;19.67;;;;;;;14.31;73.76;101186.33;1677378;84;21089;-63
2021/10/17 08:59:31;;;;;;;33.78;20.10;;;;;;;14.41;73.86;101186.80;1684829;83;21049;-63
2021/10/17 09:01:58;;;;;;;32.55;19.30;;;;;;;14.49;73.49;101190.52;1680872;83;21194;-63
2021/10/17 09:04:32;;;;;;;29.02;18.45;;;;;;;14.51;73.43;101191.32;1652678;83;21083;-63
2021/10/17 09:07:21;;;;;;;33.65;18.25;;;;;;;14.49;72.96;101195.91;1683723;83;21114;-63
2021/10/17 09:10:15;;;;;;;32.78;18.85;;;;;;;14.46;72.83;101205.47;1621071;83;21099;-62
2021/10/17 09:12:46;;;;;;;35.05;18.40;;;;;;;14.45;72.91;101206.41;1682253;83;22211;-64
2021/10/17 09:15:28;;;;;;;31.07;17.37;;;;;;;14.51;72.88;101208.86;1692409;83;20982;-62
2021/10/17 09:18:13;;;;;;;30.45;17.48;;;;;;;14.56;72.82;101204.13;1682716;83;21103;-63
2021/10/17 09:20:54;;;;;;;34.27;17.48;;;;;;;14.59;72.32;101197.23;1703445;82;21573;-63
2021/10/17 09:23:35;;;;;;;35.00;17.25;;;;;;;14.59;72.12;101197.73;1665236;83;21108;-63
2021/10/17 09:26:14;;;;;;;26.05;15.23;;;;;;;14.66;71.82;101190.20;1686984;83;21782;-62
2021/10/17 09:28:41;;;;;;;34.13;18.95;;;;;;;14.78;71.61;101200.49;1703941;82;21069;-62
2021/10/17 09:31:19;;;;;;;40.83;18.45;;;;;;;14.88;71.60;101204.51;1698983;82;21085;-62
2021/10/17 09:33:57;;;;;;;39.63;17.42;;;;;;;14.88;71.06;101199.11;1701144;82;21090;-62
2021/10/17 09:36:31;;;;;;;47.15;17.65;;;;;;;14.90;71.77;101197.21;1690798;82;21319;-63
2021/10/17 09:39:17;;;;;;;39.48;17.82;;;;;;;15.03;71.95;101192.15;1686601;83;21568;-63
2021/10/17 09:41:53;;;;;;;40.95;18.60;;;;;;;15.09;71.47;101208.52;1703032;81;21046;-65
2021/10/17 09:44:20;;;;;;;42.40;17.90;;;;;;;15.03;70.67;101199.36;1701247;82;21152;-64
2021/10/17 09:46:58;;;;;;;37.63;18.07;;;;;;;15.00;71.32;101196.31;1708546;82;22400;-63
2021/10/17 09:49:25;;;;;;;31.23;17.70;;;;;;;14.97;72.05;101196.46;1711072;82;21099;-62
2021/10/17 09:52:19;;;;;;;36.98;18.17;;;;;;;14.95;72.15;101188.05;1695916;82;21512;-64
2021/10/17 09:54:48;;;;;;;26.80;17.02;;;;;;;14.91;72.05;101195.41;1662824;84;21093;-64
2021/10/17 09:57:16;;;;;;;31.12;17.20;;;;;;;14.80;72.19;101197.25;1671864;83;21052;-63
2021/10/17 09:59:42;;;;;;;35.83;17.95;;;;;;;14.71;72.79;101189.58;1683026;83;21542;-63
2021/10/17 10:02:11;;;;;;;33.42;17.50;;;;;;;14.63;72.99;101187.20;1674324;83;21154;-63
2021/10/17 10:04:41;;;;;;;36.33;17.48;;;;;;;14.62;72.85;101194.89;1667230;84;21542;-63
2021/10/17 10:07:09;;;;;;;28.92;15.78;;;;;;;14.57;72.65;101200.94;1665809;84;21209;-63
2021/10/17 10:09:36;;;;;;;50.17;18.62;;;;;;;14.51;72.68;101185.92;1672900;84;21487;-57
2021/10/17 10:12:04;;;;;;;39.80;17.87;;;;;;;14.51;73.12;101189.97;1665593;85;21120;-58
2021/10/17 10:14:33;;;;;;;38.90;17.70;;;;;;;14.56;73.23;101177.14;1671693;84;21126;-57
2021/10/17 10:17:02;;;;;;;34.85;18.00;;;;;;;14.60;72.84;101190.89;1649156;85;21535;-58
2021/10/17 10:19:30;;;;;;;36.90;16.70;;;;;;;14.59;72.21;101187.80;1667143;84;21566;-57
2021/10/17 10:21:57;;;;;;;27.32;16.57;;;;;;;14.51;71.74;101196.72;1666348;84;22460;-58
2021/10/17 10:24:25;;;;;;;34.48;15.43;;;;;;;14.41;72.16;101179.17;1660260;84;21077;-57
2021/10/17 10:26:52;;;;;;;24.27;15.10;;;;;;;14.35;72.46;101191.59;1667861;84;21140;-57
2021/10/17 10:29:27;;;;;;;28.20;15.43;;;;;;;14.27;71.94;101187.41;1684279;84;21052;-56
2021/10/17 10:31:56;;;;;;;;;;;;;;;14.23;72.29;101177.68;1674010;84;22256;-57
2021/10/17 10:34:37;;;;;;;36.58;16.40;;;;;;;14.26;72.60;101179.37;1658504;84;20203;-57
2021/10/17 10:37:18;;;;;;;31.62;14.93;;;;;;;14.30;72.80;101176.48;1666231;84;21907;-58
2021/10/17 10:40:05;;;;;;;27.40;14.60;;;;;;;14.40;72.42;101170.67;1670815;84;21080;-58
2021/10/17 10:42:45;;;;;;;28.65;14.70;;;;;;;14.50;71.87;101177.43;1645753;84;21509;-59
2021/10/17 10:45:37;;;;;;;29.67;15.88;;;;;;;14.58;71.12;101177.95;1666989;84;21082;-58
2021/10/17 10:48:17;;;;;;;28.95;16.30;;;;;;;14.60;70.52;101165.27;1662773;84;21031;-57
2021/10/17 10:50:54;;;;;;;27.35;14.00;;;;;;;14.57;70.95;101176.66;1664792;84;21129;-57
2021/10/17 10:53:54;;;;;;;28.40;15.25;;;;;;;14.62;70.65;101177.34;1673396;84;21160;-56
2021/10/17 10:56:48;;;;;;;25.27;15.90;;;;;;;14.68;70.22;101173.47;1670337;83;21109;-57
2021/10/17 10:59:17;;;;;;;22.15;14.15;;;;;;;14.67;70.32;101170.38;1661964;83;21100;-57
2021/10/17 11:02:01;;;;;;;27.85;14.83;;;;;;;14.71;69.93;101172.05;1687204;83;21114;-56
2021/10/17 11:04:46;;;;;;;25.90;15.23;;;;;;;14.68;69.86;101168.07;1682259;83;21178;-58
2021/10/17 11:07:40;;;;;;;23.00;14.78;;;;;;;14.63;70.04;101161.56;1681521;83;21091;-58
2021/10/17 11:10:27;;;;;;;22.95;14.68;;;;;;;14.62;69.78;101159.81;1708686;82;21651;-57
2021/10/17 11:12:56;;;;;;;28.35;14.60;;;;;;;14.57;68.37;101162.70;1697977;82;21194;-57
2021/10/17 11:15:30;;;;;;;25.30;14.60;;;;;;;14.52;68.71;101151.25;1670219;83;21144;-58
2021/10/17 11:18:05;;;;;;;23.45;14.63;;;;;;;14.52;68.98;101168.79;1668218;83;21134;-57
2021/10/17 11:20:36;;;;;;;27.40;14.95;;;;;;;14.50;68.79;101150.45;1682890;83;21137;-57